Time;durP1;ratioP1;P1;durP2;ratioP2;P2;SDS_P1;SDS_P2;PMS_P1;PMS_P2;Temp;Humidity;BMP_temperature;BMP_pressure;BME280_temperature;BME280_humidity;BME280_pressure;Samples;Min_cycle;Max_cycle;Signal;HPM_P1;HPM_P2
2023/07/02 00:00:31;;;;;;;4.43;2.60;;;;;;;17.27;70.79;96989.06;6237725;28;20317;-49
2023/07/02 00:03:33;;;;;;;6.07;2.93;;;;;;;17.36;70.84;96999.13;6239738;28;20227;-50
2023/07/02 00:06:40;;;;;;;4.47;2.30;;;;;;;17.38;71.31;96981.53;6238641;28;20230;-49
2023/07/02 00:09:42;;;;;;;3.90;2.17;;;;;;;17.47;71.43;96995.09;6240310;28;20226;-49
2023/07/02 00:12:44;;;;;;;3.23;2.23;;;;;;;17.41;71.43;96985.53;6276742;28;20226;-50
2023/07/02 00:15:46;;;;;;;2.80;2.07;;;;;;;17.45;71.04;96991.94;6242923;28;20235;-51
2023/07/02 00:18:52;;;;;;;3.60;2.10;;;;;;;17.49;72.57;96984.84;6244352;28;20234;-49
2023/07/02 00:21:55;;;;;;;2.17;1.97;;;;;;;17.47;71.10;96987.81;6244719;28;20235;-49
2023/07/02 00:24:57;;;;;;;3.17;2.37;;;;;;;17.62;69.28;96989.38;6246685;28;20465;-49
2023/07/02 00:27:59;;;;;;;2.60;2.40;;;;;;;17.77;69.81;96985.56;6246660;28;20612;-51
2023/07/02 00:31:02;;;;;;;2.57;2.37;;;;;;;17.73;69.17;96982.69;6244166;28;20312;-48
2023/07/02 00:34:04;;;;;;;2.27;2.07;;;;;;;17.76;68.90;96990.16;6242357;28;20238;-48
2023/07/02 00:37:07;;;;;;;4.10;2.47;;;;;;;17.91;68.53;96983.63;6244028;28;20226;-49
2023/07/02 00:40:09;;;;;;;3.30;2.10;;;;;;;17.88;68.89;96991.50;6245787;28;20239;-49
2023/07/02 00:43:12;;;;;;;4.00;2.10;;;;;;;17.83;68.56;96972.75;6243581;28;20231;-49
2023/07/02 00:46:22;;;;;;;2.77;1.90;;;;;;;17.87;69.21;96985.31;6245374;28;20239;-50
2023/07/02 00:49:25;;;;;;;4.60;2.30;;;;;;;17.73;69.01;96969.22;6248958;28;20239;-50
2023/07/02 00:52:28;;;;;;;2.83;2.07;;;;;;;17.72;67.42;96956.81;6243590;28;20243;-45
2023/07/02 00:55:30;;;;;;;3.73;1.97;;;;;;;18.13;67.07;96985.53;6240483;28;20224;-50
2023/07/02 00:58:37;;;;;;;3.90;1.97;;;;;;;18.10;68.48;96993.41;6245344;28;20228;-48
2023/07/02 01:01:40;;;;;;;3.23;2.20;;;;;;;17.99;69.26;96988.28;6242963;28;20239;-49
2023/07/02 01:04:49;;;;;;;2.37;1.93;;;;;;;17.92;69.21;96993.28;6247637;28;20326;-49
2023/07/02 01:07:52;;;;;;;2.30;2.10;;;;;;;17.83;68.92;96987.03;6244240;28;20227;-46
2023/07/02 01:10:55;;;;;;;2.30;1.80;;;;;;;17.86;69.38;96994.50;6244163;28;20231;-47
2023/07/02 01:14:03;;;;;;;3.03;1.87;;;;;;;17.81;69.49;96991.16;6243201;28;20235;-48
2023/07/02 01:17:06;;;;;;;4.80;2.07;;;;;;;17.81;69.57;96991.94;6240948;28;20238;-50
2023/07/02 01:20:10;;;;;;;2.63;2.07;;;;;;;17.81;68.74;96991.16;6247288;28;20227;-49
2023/07/02 01:23:12;;;;;;;2.00;1.80;;;;;;;17.69;67.71;96962.81;6244722;28;20373;-50
2023/07/02 01:26:15;;;;;;;2.17;1.70;;;;;;;17.77;67.29;96972.88;6244633;28;20231;-49
2023/07/02 01:29:19;;;;;;;2.80;2.00;;;;;;;17.80;68.08;96984.97;6243496;28;20226;-47
2023/07/02 01:32:22;;;;;;;2.30;1.67;;;;;;;17.78;66.67;96985.28;6241894;28;20361;-49
2023/07/02 01:35:25;;;;;;;2.50;1.83;;;;;;;17.79;67.29;96984.16;6241138;28;20285;-50
2023/07/02 01:38:27;;;;;;;3.10;1.90;;;;;;;17.62;67.82;96975.91;6245365;28;20228;-48
2023/07/02 01:41:29;;;;;;;2.23;1.97;;;;;;;17.59;69.30;96975.75;6244122;28;20318;-48
2023/07/02 01:44:32;;;;;;;4.13;2.20;;;;;;;17.69;67.30;96989.75;6228345;28;20233;-48
2023/07/02 01:47:34;;;;;;;4.83;2.07;;;;;;;17.71;68.33;96984.84;6243873;28;20223;-50
2023/07/02 01:50:36;;;;;;;4.20;1.87;;;;;;;17.42;68.11;96957.50;6243056;28;20681;-48
2023/07/02 01:53:38;;;;;;;2.93;2.00;;;;;;;17.58;68.42;96974.91;6243715;28;20727;-49
2023/07/02 01:56:41;;;;;;;2.53;2.17;;;;;;;17.61;68.46;96995.88;6244742;28;20284;-49
2023/07/02 01:59:43;;;;;;;5.70;2.30;;;;;;;17.52;68.67;96982.31;6243153;28;20242;-47
2023/07/02 02:02:45;;;;;;;2.43;2.10;;;;;;;17.44;69.82;96995.72;6244819;28;20234;-49
2023/07/02 02:05:47;;;;;;;2.73;1.90;;;;;;;17.31;70.11;96991.94;6271447;28;20313;-49
2023/07/02 02:08:50;;;;;;;2.47;1.77;;;;;;;17.18;71.09;97004.31;6239616;28;20232;-50
2023/07/02 02:11:52;;;;;;;3.37;2.20;;;;;;;17.03;71.94;96993.88;6243713;28;20255;-49
2023/07/02 02:14:54;;;;;;;2.63;2.03;;;;;;;16.87;72.57;97001.44;6245926;28;20223;-50
2023/07/02 02:17:56;;;;;;;4.13;1.93;;;;;;;16.77;73.29;97005.13;6238600;28;20235;-49
2023/07/02 02:20:59;;;;;;;5.57;2.00;;;;;;;16.65;73.40;96999.44;6240650;28;20219;-47
2023/07/02 02:24:01;;;;;;;2.70;2.00;;;;;;;16.48;74.35;97012.63;6244613;28;20231;-50
2023/07/02 02:27:03;;;;;;;4.00;2.07;;;;;;;16.35;73.98;97002.63;6241186;28;20231;-49
2023/07/02 02:30:07;;;;;;;2.53;2.27;;;;;;;16.27;74.70;96997.97;6247153;28;20227;-48
2023/07/02 02:33:10;;;;;;;3.47;2.07;;;;;;;16.02;75.63;96980.38;6239965;28;20200;-48
2023/07/02 02:36:12;;;;;;;2.47;2.10;;;;;;;16.14;75.83;97000.28;6243034;28;20297;-50
2023/07/02 02:39:14;;;;;;;2.63;2.43;;;;;;;16.11;76.24;96998.22;6240299;28;20752;-48
2023/07/02 02:42:17;;;;;;;2.40;2.20;;;;;;;16.08;76.92;97006.06;6241424;28;20274;-49
2023/07/02 02:45:19;;;;;;;2.77;2.57;;;;;;;16.06;78.31;97006.34;6241658;28;21040;-49
2023/07/02 02:48:23;;;;;;;2.63;2.43;;;;;;;15.97;78.45;96998.16;6245265;28;20234;-48
2023/07/02 02:51:25;;;;;;;6.07;2.50;;;;;;;16.02;78.12;97004.53;6272895;28;20289;-49
2023/07/02 02:54:27;;;;;;;2.30;2.10;;;;;;;16.03;78.21;97009.63;6244549;28;20695;-47
2023/07/02 02:57:29;;;;;;;2.53;2.33;;;;;;;16.00;78.62;97004.81;6242500;28;20626;-49
2023/07/02 03:00:31;;;;;;;3.10;2.80;;;;;;;15.92;79.20;97000.94;6237819;28;20755;-46
2023/07/02 03:03:37;;;;;;;2.90;2.70;;;;;;;15.94;79.42;97006.00;6246243;28;20887;-49
2023/07/02 03:06:39;;;;;;;3.87;2.87;;;;;;;15.93;79.43;97013.25;6242066;28;20235;-49
2023/07/02 03:09:41;;;;;;;4.50;2.63;;;;;;;15.99;78.77;97017.47;6243657;28;20226;-48
2023/07/02 03:12:44;;;;;;;4.50;2.90;;;;;;;15.96;79.37;97018.06;6241044;28;20235;-48
2023/07/02 03:15:46;;;;;;;3.03;2.73;;;;;;;15.94;79.71;97014.06;6226310;28;20239;-48
2023/07/02 03:18:48;;;;;;;3.07;2.80;;;;;;;16.11;78.02;97014.34;6242584;28;20239;-47
2023/07/02 03:21:50;;;;;;;3.20;2.40;;;;;;;16.12;77.96;97021.31;6243813;28;20735;-49
2023/07/02 03:24:52;;;;;;;2.83;2.63;;;;;;;16.18;79.31;97022.81;6239440;28;20242;-46
2023/07/02 03:27:54;;;;;;;3.00;2.33;;;;;;;16.15;79.75;97015.31;6242055;28;20700;-47
2023/07/02 03:30:56;;;;;;;2.77;2.47;;;;;;;16.14;80.06;97018.31;6240413;28;20238;-50
2023/07/02 03:34:03;;;;;;;3.80;2.83;;;;;;;16.16;80.76;97026.91;6242377;28;20235;-48
2023/07/02 03:37:05;;;;;;;2.70;2.47;;;;;;;16.18;80.62;97017.44;6242110;28;20280;-50
2023/07/02 03:40:08;;;;;;;4.40;2.73;;;;;;;16.28;81.12;97021.84;6242057;28;20373;-50
2023/07/02 03:43:10;;;;;;;3.90;2.70;;;;;;;16.35;80.94;97021.44;6239699;28;20243;-50
2023/07/02 03:46:12;;;;;;;6.57;2.83;;;;;;;15.88;80.97;96940.81;6240074;28;20760;-47
2023/07/02 03:49:14;;;;;;;3.73;2.60;;;;;;;16.41;81.06;97036.41;6248420;28;20239;-50
2023/07/02 03:52:16;;;;;;;3.57;2.70;;;;;;;16.50;80.51;97024.69;6247003;28;20273;-49
2023/07/02 03:55:19;;;;;;;3.07;2.77;;;;;;;16.66;80.44;97035.19;6246826;28;20650;-48
2023/07/02 03:58:22;;;;;;;2.83;2.63;;;;;;;16.74;80.80;97029.13;6246498;28;20236;-50
2023/07/02 04:01:24;;;;;;;3.77;2.80;;;;;;;16.80;80.81;97025.25;6243075;28;20235;-48
2023/07/02 04:04:26;;;;;;;7.20;2.77;;;;;;;16.86;80.40;97032.13;6248730;28;20234;-50
2023/07/02 04:07:28;;;;;;;4.23;2.70;;;;;;;16.89;80.25;97036.13;6247030;28;20669;-50
2023/07/02 04:10:33;;;;;;;3.30;3.00;;;;;;;17.02;79.73;97046.09;6244053;28;20582;-50
2023/07/02 04:13:36;;;;;;;3.73;3.00;;;;;;;17.19;76.31;97037.41;6246712;28;20316;-49
2023/07/02 04:16:38;;;;;;;2.90;2.60;;;;;;;17.26;77.47;97038.63;6242697;28;20232;-51
2023/07/02 04:19:40;;;;;;;2.83;2.37;;;;;;;17.34;79.50;97045.19;6246476;28;20231;-50
2023/07/02 04:22:42;;;;;;;2.80;2.33;;;;;;;17.36;79.58;97043.00;6246775;28;20233;-49
2023/07/02 04:25:45;;;;;;;3.77;2.93;;;;;;;17.35;80.40;97043.31;6233815;28;20219;-49
2023/07/02 04:29:07;;;;;;;3.57;2.70;;;;;;;17.93;72.48;97048.78;6246359;28;20603;-49
2023/07/02 04:32:09;;;;;;;6.80;3.00;;;;;;;17.90;75.05;97059.38;6245704;28;20727;-49
2023/07/02 04:35:11;;;;;;;2.50;2.27;;;;;;;17.84;76.55;97069.47;6245388;28;20239;-47
2023/07/02 04:38:13;;;;;;;3.33;2.30;;;;;;;17.74;77.48;97059.72;6244807;28;20853;-49
2023/07/02 04:41:18;;;;;;;2.60;2.40;;;;;;;17.74;78.95;97070.50;6237755;28;20247;-49
2023/07/02 04:44:29;;;;;;;3.67;2.80;;;;;;;17.77;77.39;97083.34;6245302;28;20251;-49
2023/07/02 04:47:31;;;;;;;3.00;2.03;;;;;;;17.86;76.35;97082.63;6247224;28;20309;-49
2023/07/02 04:50:33;;;;;;;4.93;2.50;;;;;;;17.81;75.55;97051.22;6246903;28;20238;-48
2023/07/02 04:53:37;;;;;;;3.00;2.70;;;;;;;17.97;75.75;97078.59;6243679;28;20712;-49
2023/07/02 04:56:39;;;;;;;3.03;2.33;;;;;;;17.94;76.58;97084.63;6243775;28;20231;-50
2023/07/02 04:59:42;;;;;;;2.50;2.10;;;;;;;17.93;76.88;97086.53;6244849;28;20305;-49
2023/07/02 05:02:45;;;;;;;3.30;2.13;;;;;;;17.74;78.29;97059.72;6239746;28;20227;-49
2023/07/02 05:05:47;;;;;;;4.27;2.40;;;;;;;17.89;77.98;97093.63;6245111;28;20746;-51
2023/07/02 05:08:49;;;;;;;2.43;2.23;;;;;;;17.90;78.26;97094.41;6240529;28;20704;-47
2023/07/02 05:11:51;;;;;;;3.67;2.10;;;;;;;17.91;77.64;97090.59;6244135;28;20245;-47
2023/07/02 05:14:53;;;;;;;2.20;2.00;;;;;;;17.96;78.32;97118.25;6242024;28;20231;-47
2023/07/02 05:17:55;;;;;;;2.53;2.27;;;;;;;18.00;79.27;97115.75;6242172;28;20705;-49
2023/07/02 05:20:57;;;;;;;3.33;2.30;;;;;;;17.94;79.48;97125.84;6247002;28;20234;-49
2023/07/02 05:24:00;;;;;;;2.97;2.37;;;;;;;17.91;78.56;97120.25;6241707;28;20872;-48
2023/07/02 05:27:02;;;;;;;2.30;2.10;;;;;;;17.95;78.30;97129.34;6242273;28;20293;-58
2023/07/02 05:30:05;;;;;;;3.93;2.27;;;;;;;17.88;79.98;97120.84;6243715;28;20223;-53
2023/07/02 05:33:07;;;;;;;2.07;1.77;;;;;;;17.88;79.85;97123.53;6244311;28;20219;-66
2023/07/02 05:36:09;;;;;;;2.97;1.97;;;;;;;17.90;80.26;97135.63;6240635;28;20239;-51
2023/07/02 05:39:11;;;;;;;2.40;2.00;;;;;;;17.87;81.18;97133.53;6245347;28;20224;-50
2023/07/02 05:42:13;;;;;;;2.63;2.00;;;;;;;17.85;80.63;97148.41;6243528;28;20698;-56
2023/07/02 05:45:15;;;;;;;2.30;2.10;;;;;;;17.90;81.07;97137.53;6241568;28;20244;-51
2023/07/02 05:48:18;;;;;;;2.23;2.03;;;;;;;17.93;79.55;97131.50;6243934;28;20610;-49
2023/07/02 05:51:24;;;;;;;2.07;1.80;;;;;;;18.05;81.61;97147.97;6244974;28;20223;-50
2023/07/02 05:54:26;;;;;;;2.07;1.60;;;;;;;18.13;80.71;97146.44;6241687;28;20239;-62
2023/07/02 05:57:28;;;;;;;2.40;2.20;;;;;;;18.16;80.50;97146.66;6243835;28;20362;-53
2023/07/02 06:00:30;;;;;;;2.27;2.07;;;;;;;17.55;79.99;97056.34;6243322;28;20689;-55
2023/07/02 06:03:33;;;;;;;2.40;2.20;;;;;;;18.10;79.50;97126.31;6242418;28;20228;-53
2023/07/02 06:06:35;;;;;;;2.33;2.13;;;;;;;18.35;78.79;97159.97;6245691;28;20231;-47
2023/07/02 06:09:37;;;;;;;3.43;2.20;;;;;;;18.35;78.52;97167.28;6243363;28;20727;-57
2023/07/02 06:12:39;;;;;;;1.97;1.80;;;;;;;18.38;78.96;97175.56;6243944;28;20600;-54
2023/07/02 06:15:42;;;;;;;2.90;1.80;;;;;;;18.45;79.45;97175.13;6237918;28;20646;-53
2023/07/02 06:18:44;;;;;;;1.80;1.70;;;;;;;18.46;77.67;97180.22;6240840;28;20227;-51
2023/07/02 06:21:46;;;;;;;2.10;1.57;;;;;;;18.41;78.00;97183.03;6242195;28;20354;-51
2023/07/02 06:24:49;;;;;;;3.60;1.60;;;;;;;18.39;78.45;97187.94;6243359;28;20657;-48
2023/07/02 06:27:52;;;;;;;1.83;1.37;;;;;;;18.37;79.46;97200.13;6240902;28;20230;-50
2023/07/02 06:30:54;;;;;;;2.03;1.90;;;;;;;18.25;80.10;97185.28;6244104;28;20731;-52
2023/07/02 06:33:56;;;;;;;2.47;1.30;;;;;;;18.18;79.55;97192.19;6244211;28;20267;-51
2023/07/02 06:36:58;;;;;;;1.50;1.40;;;;;;;18.25;78.60;97181.78;6240758;28;20235;-51
2023/07/02 06:40:00;;;;;;;3.27;1.80;;;;;;;18.29;80.62;97186.25;6243147;28;20276;-50
2023/07/02 06:43:02;;;;;;;1.97;1.83;;;;;;;18.31;80.31;97181.34;6243017;28;20235;-50
2023/07/02 06:46:05;;;;;;;3.07;2.33;;;;;;;18.49;77.72;97170.72;6240804;28;20455;-50
2023/07/02 06:49:07;;;;;;;3.87;1.97;;;;;;;18.86;76.19;97179.59;6248285;28;20242;-49
2023/07/02 06:52:09;;;;;;;2.40;2.20;;;;;;;19.01;74.94;97180.03;6239126;28;20273;-50
2023/07/02 06:55:11;;;;;;;3.53;2.43;;;;;;;18.89;76.41;97160.09;6239614;28;20913;-49
2023/07/02 06:58:13;;;;;;;4.37;2.30;;;;;;;19.00;77.75;97174.91;6241866;28;20380;-50
2023/07/02 07:01:15;;;;;;;2.80;2.60;;;;;;;18.94;77.51;97182.34;6241909;28;20234;-47
2023/07/02 07:04:18;;;;;;;3.73;2.40;;;;;;;18.93;77.47;97182.66;6245673;28;20227;-49
2023/07/02 07:07:20;;;;;;;2.23;1.90;;;;;;;19.01;75.23;97182.72;6242042;28;20578;-48
2023/07/02 07:10:22;;;;;;;3.20;2.30;;;;;;;19.13;75.03;97189.44;6240247;28;20237;-49
2023/07/02 07:13:24;;;;;;;2.30;2.10;;;;;;;19.22;77.20;97193.00;6240330;28;20232;-50
2023/07/02 07:16:26;;;;;;;1.87;1.77;;;;;;;19.32;73.76;97196.22;6239255;28;20665;-51
2023/07/02 07:19:28;;;;;;;2.20;2.00;;;;;;;19.34;76.36;97185.91;6239390;28;20239;-50
2023/07/02 07:22:31;;;;;;;2.33;2.13;;;;;;;19.28;77.27;97195.25;6244932;28;20227;-48
2023/07/02 07:25:33;;;;;;;2.37;2.17;;;;;;;19.28;77.58;97195.25;6241956;28;20231;-47
2023/07/02 07:28:35;;;;;;;2.10;1.90;;;;;;;19.24;76.98;97188.88;6241881;28;20704;-50
2023/07/02 07:31:37;;;;;;;2.73;2.53;;;;;;;19.30;75.82;97181.44;6240378;28;20721;-52
2023/07/02 07:34:39;;;;;;;3.97;3.23;;;;;;;19.44;75.03;97202.94;6240504;28;20234;-51
2023/07/02 07:37:41;;;;;;;3.43;3.13;;;;;;;19.40;73.05;97169.56;6237920;28;20239;-50
2023/07/02 07:40:43;;;;;;;3.90;2.70;;;;;;;19.98;68.28;97204.44;6240851;28;20231;-50
2023/07/02 07:43:46;;;;;;;3.83;2.93;;;;;;;20.14;68.44;97201.31;6239552;28;20775;-51
2023/07/02 07:46:48;;;;;;;5.10;2.93;;;;;;;20.06;71.28;97198.28;6239707;28;20310;-51
2023/07/02 07:49:50;;;;;;;2.53;2.33;;;;;;;20.10;68.67;97211.97;6239895;28;20228;-53
2023/07/02 07:52:52;;;;;;;3.57;2.67;;;;;;;20.12;69.64;97196.22;6243955;28;20254;-52
2023/07/02 07:55:54;;;;;;;3.17;2.70;;;;;;;20.30;70.30;97208.66;6239301;28;20245;-53
2023/07/02 07:58:57;;;;;;;2.60;2.40;;;;;;;20.62;67.14;97198.53;6238801;28;20803;-52
2023/07/02 08:02:00;;;;;;;3.67;2.67;;;;;;;20.54;66.62;97202.00;6240044;28;20245;-50
2023/07/02 08:05:03;;;;;;;4.37;2.77;;;;;;;20.56;69.49;97197.09;6238253;28;20265;-50
2023/07/02 08:08:05;;;;;;;2.70;2.47;;;;;;;20.64;67.85;97190.06;6242572;28;20227;-53
2023/07/02 08:11:07;;;;;;;3.47;2.60;;;;;;;20.81;65.12;97190.88;6240188;28;20230;-52
2023/07/02 08:14:09;;;;;;;2.50;2.30;;;;;;;20.77;68.22;97187.22;6242268;28;20227;-52
2023/07/02 08:17:11;;;;;;;2.57;2.37;;;;;;;20.74;68.45;97177.03;6230803;28;20240;-51
2023/07/02 08:20:14;;;;;;;3.53;2.13;;;;;;;20.75;68.16;97184.03;6239804;28;20215;-51
2023/07/02 08:23:16;;;;;;;4.07;2.20;;;;;;;20.78;68.37;97190.72;6242112;28;20235;-53
2023/07/02 08:26:18;;;;;;;2.27;2.07;;;;;;;21.01;63.89;97188.63;6238074;28;20240;-52
2023/07/02 08:29:20;;;;;;;2.50;1.87;;;;;;;21.01;64.41;97189.41;6241287;28;20278;-51
2023/07/02 08:32:23;;;;;;;2.80;2.20;;;;;;;21.01;66.60;97202.16;6243119;28;20227;-49
2023/07/02 08:35:25;;;;;;;2.37;2.17;;;;;;;21.11;64.96;97202.63;6244930;28;20322;-54
2023/07/02 08:38:27;;;;;;;2.17;2.07;;;;;;;21.15;66.60;97200.06;6242690;28;20241;-49
2023/07/02 08:41:29;;;;;;;2.47;1.80;;;;;;;21.31;64.37;97189.53;6246129;28;20235;-51
2023/07/02 08:44:31;;;;;;;2.40;2.20;;;;;;;21.29;65.13;97183.63;6244913;28;20243;-52
2023/07/02 08:47:34;;;;;;;2.27;1.93;;;;;;;21.24;65.56;97181.09;6248103;28;20238;-52
2023/07/02 08:50:36;;;;;;;5.43;2.30;;;;;;;21.49;63.88;97188.38;6245024;28;20236;-50
2023/07/02 08:53:38;;;;;;;4.10;2.00;;;;;;;21.52;63.88;97184.19;6239870;28;20231;-52
2023/07/02 08:56:41;;;;;;;1.93;1.83;;;;;;;21.71;61.18;97200.84;6243463;28;20305;-52
2023/07/02 08:59:43;;;;;;;2.27;1.80;;;;;;;21.82;62.01;97179.59;6245219;28;20274;-52
2023/07/02 09:02:46;;;;;;;2.40;1.97;;;;;;;21.79;62.51;97194.63;6242980;28;20285;-51
2023/07/02 09:05:51;;;;;;;2.80;2.13;;;;;;;21.74;64.73;97199.44;6245538;28;20266;-52
2023/07/02 09:09:04;;;;;;;3.70;1.80;;;;;;;21.57;63.81;97184.00;6243492;28;20235;-52
2023/07/02 09:12:06;;;;;;;3.17;2.50;;;;;;;21.73;60.92;97205.97;6233049;28;20231;-52
2023/07/02 09:15:09;;;;;;;2.00;1.90;;;;;;;21.74;63.16;97208.34;6244649;28;20231;-50
2023/07/02 09:18:29;;;;;;;2.20;2.00;;;;;;;21.70;60.45;97207.41;6243918;28;20233;-52
2023/07/02 09:22:01;;;;;;;3.33;2.00;;;;;;;21.67;63.54;97213.47;6241492;28;20238;-52
2023/07/02 09:25:04;;;;;;;2.17;1.80;;;;;;;21.69;63.48;97224.81;6244529;28;20803;-52
2023/07/02 09:28:17;;;;;;;2.97;2.10;;;;;;;21.68;57.61;97225.94;6244673;28;20226;-50
2023/07/02 09:31:19;;;;;;;2.00;1.90;;;;;;;21.32;61.00;97219.00;6243611;28;20904;-53
2023/07/02 09:34:28;;;;;;;2.60;1.90;;;;;;;21.10;61.70;97224.63;6237518;28;20228;-52
2023/07/02 09:37:35;;;;;;;2.77;2.30;;;;;;;21.01;61.75;97229.25;6235778;28;20278;-53
2023/07/02 09:40:45;;;;;;;2.00;1.80;;;;;;;20.73;63.81;97212.53;6237566;28;20239;-54
2023/07/02 09:43:49;;;;;;;1.90;1.80;;;;;;;20.76;62.60;97212.69;6240028;28;20239;-52
2023/07/02 09:47:00;;;;;;;3.07;2.10;;;;;;;20.81;63.73;97231.47;6242239;28;20231;-52
2023/07/02 09:50:08;;;;;;;3.33;2.43;;;;;;;20.95;61.65;97234.03;6240186;28;20707;-52
2023/07/02 09:53:10;;;;;;;2.23;1.90;;;;;;;21.15;57.87;97242.63;6235119;28;20232;-52
2023/07/02 09:56:12;;;;;;;3.23;2.13;;;;;;;21.23;61.91;97241.78;6242678;28;20259;-54
2023/07/02 09:59:15;;;;;;;3.97;2.00;;;;;;;21.16;60.43;97249.63;6242839;28;20247;-55
2023/07/02 10:02:17;;;;;;;3.60;2.20;;;;;;;20.91;60.58;97243.91;6242731;28;20234;-52
2023/07/02 10:05:29;;;;;;;2.53;1.97;;;;;;;20.78;63.04;97253.78;6240393;28;20235;-53
2023/07/02 10:08:32;;;;;;;3.23;2.23;;;;;;;20.73;64.95;97245.00;6243694;28;20236;-52
2023/07/02 10:11:35;;;;;;;2.43;1.90;;;;;;;20.70;63.46;97257.28;6241113;28;20239;-52
2023/07/02 10:14:44;;;;;;;3.57;2.10;;;;;;;20.83;61.82;97261.72;6241429;28;20238;-51
2023/07/02 10:17:55;;;;;;;2.00;1.90;;;;;;;20.80;62.19;97256.97;6243521;28;20579;-53
2023/07/02 10:20:58;;;;;;;2.60;2.20;;;;;;;20.76;64.47;97257.91;6249031;28;20736;-52
2023/07/02 10:24:14;;;;;;;4.40;2.33;;;;;;;20.68;65.62;97232.44;6247263;28;20226;-49
2023/07/02 10:27:16;;;;;;;5.50;2.07;;;;;;;20.77;63.90;97262.22;6240901;28;20827;-50
2023/07/02 10:30:18;;;;;;;1.87;1.70;;;;;;;20.70;65.56;97238.34;6239564;28;20677;-50
2023/07/02 10:33:20;;;;;;;3.23;2.23;;;;;;;21.07;62.21;97252.31;6238296;28;20215;-50
2023/07/02 10:36:25;;;;;;;2.67;2.43;;;;;;;21.23;61.77;97269.69;6244952;28;20686;-50
2023/07/02 10:39:29;;;;;;;2.43;2.23;;;;;;;21.36;64.98;97262.53;6240736;28;20235;-50
2023/07/02 10:42:33;;;;;;;2.43;2.20;;;;;;;21.50;61.60;97260.41;6238651;28;20254;-51
2023/07/02 10:45:36;;;;;;;2.10;1.97;;;;;;;21.57;58.00;97244.44;6236928;28;20235;-51
2023/07/02 10:48:38;;;;;;;2.63;1.80;;;;;;;21.67;59.36;97256.06;6236892;28;20326;-51
2023/07/02 10:51:42;;;;;;;2.47;2.13;;;;;;;21.73;59.49;97243.94;6239367;28;20227;-51
2023/07/02 10:54:47;;;;;;;3.33;2.50;;;;;;;21.66;59.20;97238.22;6236450;28;20313;-51
2023/07/02 10:57:52;;;;;;;2.10;1.90;;;;;;;21.74;59.42;97240.88;6241059;28;20851;-52
2023/07/02 11:00:55;;;;;;;2.37;2.17;;;;;;;21.61;60.14;97225.63;6239847;28;20231;-53
2023/07/02 11:04:02;;;;;;;2.67;1.87;;;;;;;21.68;60.34;97236.78;6242972;28;20235;-51
2023/07/02 11:07:05;;;;;;;2.33;2.13;;;;;;;21.74;63.03;97249.03;6243671;28;20238;-51
2023/07/02 11:10:08;;;;;;;2.50;2.10;;;;;;;21.75;60.94;97238.97;6242007;28;20237;-50
2023/07/02 11:13:15;;;;;;;2.27;2.07;;;;;;;21.71;58.13;97238.03;6244018;28;20235;-51
2023/07/02 11:16:26;;;;;;;2.90;2.33;;;;;;;21.53;58.63;97250.88;6240645;28;20245;-50
2023/07/02 11:19:28;;;;;;;3.03;2.37;;;;;;;21.43;59.16;97245.75;6240827;28;20239;-51
2023/07/02 11:22:34;;;;;;;3.50;2.07;;;;;;;21.35;61.20;97240.03;6241042;28;20326;-49
2023/07/02 11:25:39;;;;;;;2.40;1.90;;;;;;;21.27;60.90;97243.53;6241771;28;20233;-51
2023/07/02 11:28:51;;;;;;;3.23;2.20;;;;;;;21.18;63.05;97245.50;6248720;28;20235;-53
2023/07/02 11:31:53;;;;;;;2.60;2.20;;;;;;;20.98;60.88;97203.59;6245058;28;20243;-51
2023/07/02 11:34:56;;;;;;;3.90;2.20;;;;;;;21.30;62.24;97231.28;6238187;28;20274;-53
2023/07/02 11:37:58;;;;;;;2.10;1.90;;;;;;;21.59;59.13;97244.94;6240870;28;20364;-52
2023/07/02 11:41:03;;;;;;;2.30;1.97;;;;;;;21.72;61.03;97232.28;6239482;28;20227;-51
2023/07/02 11:44:06;;;;;;;2.10;1.90;;;;;;;21.98;62.02;97240.31;6240741;28;20242;-51
2023/07/02 11:47:09;;;;;;;2.77;2.10;;;;;;;22.22;56.33;97253.31;6244220;28;20326;-52
2023/07/02 11:50:11;;;;;;;2.40;2.20;;;;;;;22.24;60.20;97233.97;6238953;28;20239;-53
2023/07/02 11:53:27;;;;;;;2.40;2.10;;;;;;;22.46;55.30;97249.94;6236573;28;20234;-52
2023/07/02 11:56:30;;;;;;;2.90;2.17;;;;;;;22.37;57.09;97246.53;6241711;28;20662;-51
2023/07/02 11:59:32;;;;;;;2.10;1.90;;;;;;;22.49;59.67;97232.22;6237253;28;20235;-52
2023/07/02 12:02:34;;;;;;;2.00;1.80;;;;;;;22.67;58.58;97242.63;6240789;28;20612;-53
2023/07/02 12:05:37;;;;;;;2.13;1.92;;;;;;;22.83;59.23;97250.19;6241076;28;20247;-53
2023/07/02 12:08:39;;;;;;;2.20;2.00;;;;;;;22.76;55.68;97237.13;6238210;28;20604;-51
2023/07/02 12:11:41;;;;;;;3.53;1.65;;;;;;;22.89;56.27;97252.38;6241529;28;20219;-52
2023/07/02 12:14:43;;;;;;;2.60;2.00;;;;;;;22.89;53.20;97260.53;6250962;28;20245;-51
2023/07/02 12:17:45;;;;;;;2.72;2.05;;;;;;;22.84;53.94;97257.19;6244895;28;20227;-52
2023/07/02 12:20:48;;;;;;;2.17;1.90;;;;;;;22.81;55.40;97285.81;6248028;28;20235;-53
2023/07/02 12:23:50;;;;;;;5.40;2.30;;;;;;;22.50;54.17;97271.81;6232765;28;20235;-51
2023/07/02 12:26:52;;;;;;;2.90;1.90;;;;;;;22.31;51.45;97256.75;6245272;28;20248;-52
2023/07/02 12:29:55;;;;;;;3.17;1.97;;;;;;;22.30;55.63;97276.06;6243553;28;20242;-51
2023/07/02 12:32:58;;;;;;;1.57;1.47;;;;;;;22.50;53.46;97252.81;6246735;28;20246;-49
2023/07/02 12:36:00;;;;;;;2.90;1.73;;;;;;;22.71;52.75;97278.06;6242610;28;20615;-51
2023/07/02 12:39:02;;;;;;;2.30;1.80;;;;;;;22.81;54.31;97266.81;6250169;28;20737;-49
2023/07/02 12:42:05;;;;;;;2.85;1.67;;;;;;;22.86;53.83;97250.31;6243264;28;20783;-52
2023/07/02 12:45:07;;;;;;;1.95;1.75;;;;;;;22.85;52.77;97262.28;6248114;28;20605;-51
2023/07/02 12:48:10;;;;;;;3.15;1.92;;;;;;;22.84;53.95;97255.28;6247473;28;20226;-53
2023/07/02 12:51:12;;;;;;;2.10;1.63;;;;;;;22.84;54.09;97263.41;6243337;28;20693;-51
2023/07/02 12:54:14;;;;;;;2.15;1.67;;;;;;;22.67;56.13;97237.19;6241451;28;20215;-53
2023/07/02 12:57:17;;;;;;;2.38;1.80;;;;;;;22.72;54.16;97268.00;6248537;28;20673;-53
2023/07/02 13:00:21;;;;;;;2.15;1.63;;;;;;;22.59;53.35;97262.47;6248308;28;21655;-52
2023/07/02 13:03:24;;;;;;;3.28;1.67;;;;;;;22.43;54.85;97261.47;6244688;28;20254;-52
2023/07/02 13:06:28;;;;;;;3.38;1.77;;;;;;;22.37;56.05;97266.31;6244339;28;20242;-52
2023/07/02 13:09:30;;;;;;;3.45;1.63;;;;;;;22.36;55.83;97278.28;6241355;28;20232;-51
2023/07/02 13:12:33;;;;;;;3.83;1.60;;;;;;;22.40;57.69;97273.78;6232082;28;20269;-53
2023/07/02 13:15:39;;;;;;;4.78;1.60;;;;;;;22.42;53.76;97268.03;6244031;28;20239;-52
2023/07/02 13:18:42;;;;;;;1.40;1.17;;;;;;;22.27;55.81;97268.63;6244574;28;20232;-53
2023/07/02 13:21:45;;;;;;;1.50;1.37;;;;;;;22.12;55.79;97273.47;6241123;28;20220;-53
2023/07/02 13:24:48;;;;;;;0.98;0.98;;;;;;;22.03;56.66;97274.59;6243672;28;20366;-54
2023/07/02 13:27:50;;;;;;;1.20;1.00;;;;;;;21.98;56.95;97282.91;6245689;28;20684;-52
2023/07/02 13:30:53;;;;;;;1.70;0.90;;;;;;;21.72;56.12;97270.22;6248651;28;20235;-53
2023/07/02 13:33:55;;;;;;;1.70;1.08;;;;;;;21.75;57.81;97263.38;6241669;28;20228;-51
2023/07/02 13:36:58;;;;;;;1.40;1.03;;;;;;;21.75;56.59;97266.09;6246281;28;20215;-55
2023/07/02 13:40:02;;;;;;;1.40;0.85;;;;;;;21.96;53.75;97266.16;6231195;28;20227;-59
2023/07/02 13:43:07;;;;;;;1.53;0.90;;;;;;;22.20;54.14;97268.31;6240869;28;20239;-57
2023/07/02 13:46:09;;;;;;;0.90;0.90;;;;;;;22.05;55.51;97272.34;6239537;28;20265;-52
2023/07/02 13:49:12;;;;;;;0.70;0.70;;;;;;;22.02;54.11;97270.28;6242328;28;20644;-50
2023/07/02 13:52:15;;;;;;;4.85;1.15;;;;;;;22.00;54.69;97264.38;6242736;28;20235;-53
2023/07/02 13:55:18;;;;;;;0.80;0.70;;;;;;;21.64;54.91;97228.47;6242973;28;20377;-52
2023/07/02 13:58:22;;;;;;;1.45;0.70;;;;;;;22.04;52.78;97262.63;6246225;28;20224;-52
2023/07/02 14:01:33;;;;;;;0.87;0.80;;;;;;;22.01;54.75;97272.19;6243777;28;20362;-51
2023/07/02 14:04:36;;;;;;;1.10;0.90;;;;;;;21.95;58.17;97273.50;6247100;28;20227;-52
2023/07/02 14:07:38;;;;;;;1.73;1.03;;;;;;;22.08;54.04;97260.84;6243989;28;20246;-52
2023/07/02 14:10:41;;;;;;;1.73;1.00;;;;;;;21.98;54.25;97269.34;6240931;28;20250;-52
2023/07/02 14:13:44;;;;;;;1.17;1.07;;;;;;;21.87;55.45;97260.75;6242776;28;20648;-54
2023/07/02 14:16:48;;;;;;;1.37;1.20;;;;;;;21.88;53.16;97257.75;6239567;28;20247;-51
2023/07/02 14:19:50;;;;;;;1.77;1.47;;;;;;;21.43;55.23;97221.38;6242969;28;20232;-51
2023/07/02 14:22:53;;;;;;;2.30;1.70;;;;;;;21.76;55.28;97284.72;6245322;28;20253;-52